Time,TemperatureF,DewpointF,PressureIn,WindDirection,WindDirectionDegrees,WindSpeedMPH,WindSpeedGustMPH,Humidity,HourlyPrecipIn,Conditions,Clouds,dailyrainin,SoftwareType,DateUTC
2013-03-01 00:02:00,56.0,49.0,29.88,North,5,0.0,0.0,78,0.00,,,0.00,,2013-03-01 05:02:00,
2013-03-01 00:11:00,56.0,49.0,29.88,North,5,0.0,0.0,78,0.00,,,0.00,,2013-03-01 05:11:00,
2013-03-01 00:22:00,55.0,49.0,29.88,North,9,0.0,0.0,79,0.00,,,0.00,,2013-03-01 05:22:00,
2013-03-01 00:33:00,55.0,49.0,29.87,North,9,0.0,0.0,79,0.00,,,0.00,,2013-03-01 05:33:00,
2013-03-01 00:42:00,55.0,49.0,29.87,North,9,0.0,0.0,79,0.00,,,0.00,,2013-03-01 05:42:00,
2013-03-01 00:53:00,55.0,49.0,29.87,North,5,0.0,0.0,80,0.00,,,0.00,,2013-03-01 05:53:00,
2013-03-01 01:02:00,54.0,48.0,29.88,North,9,0.0,0.0,81,0.00,,,0.00,,2013-03-01 06:02:00,
2013-03-01 01:12:00,54.0,48.0,29.88,North,9,0.0,0.0,81,0.00,,,0.00,,2013-03-01 06:12:00,
2013-03-01 01:22:00,54.0,48.0,29.88,North,9,0.0,0.0,81,0.00,,,0.00,,2013-03-01 06:22:00,
2013-03-01 01:32:00,54.0,49.0,29.88,North,355,0.0,0.0,82,0.00,,,0.00,,2013-03-01 06:32:00,
2013-03-01 01:42:00,54.0,49.0,29.88,North,355,0.0,0.0,82,0.00,,,0.00,,2013-03-01 06:42:00,
2013-03-01 01:53:00,54.0,49.0,29.88,North,355,0.0,0.0,82,0.00,,,0.00,,2013-03-01 06:53:00,
2013-03-01 02:02:00,54.0,49.0,29.88,North,355,0.0,0.0,82,0.00,,,0.00,,2013-03-01 07:02:00,
2013-03-01 02:12:00,54.0,49.0,29.88,North,355,0.0,0.0,82,0.00,,,0.00,,2013-03-01 07:12:00,
2013-03-01 02:22:00,53.0,48.0,29.88,North,355,0.0,0.0,83,0.00,,,0.00,,2013-03-01 07:22:00,
2013-03-01 02:32:00,53.0,48.0,29.87,NNW,341,0.0,0.0,83,0.00,,,0.00,,2013-03-01 07:32:00,
2013-03-01 02:42:00,53.0,48.0,29.87,NNW,341,0.0,0.0,83,0.00,,,0.00,,2013-03-01 07:42:00,
2013-03-01 02:52:00,53.0,48.0,29.87,WNW,296,0.0,0.0,83,0.00,,,0.00,,2013-03-01 07:52:00,
2013-03-01 03:02:00,53.0,48.0,29.86,WNW,296,0.0,0.0,83,0.00,,,0.00,,2013-03-01 08:02:00,
2013-03-01 03:12:00,53.0,48.0,29.86,WNW,296,0.0,0.0,83,0.00,,,0.00,,2013-03-01 08:12:00,
2013-03-01 03:22:00,53.0,48.0,29.86,NW,311,0.0,0.0,83,0.00,,,0.00,,2013-03-01 08:22:00,
2013-03-01 03:32:00,53.0,48.0,29.85,North,349,0.0,1.0,83,0.00,,,0.00,,2013-03-01 08:32:00,
2013-03-01 03:43:00,53.0,48.0,29.85,North,349,0.0,1.0,83,0.00,,,0.00,,2013-03-01 08:43:00,
2013-03-01 03:53:00,53.0,48.0,29.85,North,355,0.0,0.0,83,0.00,,,0.00,,2013-03-01 08:53:00,
2013-03-01 04:02:00,53.0,48.0,29.85,NNW,333,0.0,0.0,83,0.00,,,0.00,,2013-03-01 09:02:00,
2013-03-01 04:12:00,53.0,48.0,29.85,NNW,333,0.0,0.0,83,0.00,,,0.00,,2013-03-01 09:12:00,
2013-03-01 04:22:00,53.0,48.0,29.84,NW,316,0.0,0.0,83,0.00,,,0.00,,2013-03-01 09:22:00,
2013-03-01 04:32:00,53.0,48.0,29.85,WNW,292,0.0,0.0,82,0.00,,,0.00,,2013-03-01 09:32:00,
2013-03-01 04:42:00,53.0,48.0,29.85,WNW,292,0.0,0.0,82,0.00,,,0.00,,2013-03-01 09:42:00,
2013-03-01 04:53:00,53.0,48.0,29.85,WNW,292,0.0,0.0,83,0.00,,,0.00,,2013-03-01 09:53:00,
2013-03-01 05:02:00,53.0,48.0,29.85,WNW,292,0.0,0.0,84,0.00,,,0.00,,2013-03-01 10:02:00,
2013-03-01 05:12:00,53.0,48.0,29.85,WNW,292,0.0,0.0,84,0.00,,,0.00,,2013-03-01 10:12:00,
2013-03-01 05:22:00,53.0,48.0,29.85,WNW,292,0.0,0.0,84,0.00,,,0.00,,2013-03-01 10:22:00,
2013-03-01 05:32:00,53.0,48.0,29.85,NW,323,0.0,2.0,84,0.00,,,0.00,,2013-03-01 10:32:00,
2013-03-01 05:42:00,53.0,48.0,29.85,NW,323,0.0,2.0,84,0.00,,,0.00,,2013-03-01 10:42:00,
2013-03-01 05:53:00,53.0,48.0,29.85,WNW,300,1.0,2.0,84,0.00,,,0.00,,2013-03-01 10:53:00,
2013-03-01 06:02:00,54.0,49.0,29.87,NW,305,1.0,2.0,84,0.00,,,0.00,,2013-03-01 11:02:00,
2013-03-01 06:11:00,54.0,49.0,29.87,NW,305,1.0,2.0,84,0.00,,,0.00,,2013-03-01 11:11:00,
2013-03-01 06:22:00,54.0,49.0,29.87,NW,315,0.0,2.0,83,0.00,,,0.00,,2013-03-01 11:22:00,
2013-03-01 06:32:00,55.0,50.0,29.88,North,355,2.0,5.0,82,0.00,,,0.00,,2013-03-01 11:32:00,
2013-03-01 06:42:00,55.0,50.0,29.88,North,355,2.0,5.0,82,0.00,,,0.00,,2013-03-01 11:42:00,
2013-03-01 06:53:00,55.0,48.0,29.89,NE,54,3.0,5.0,78,0.00,,,0.00,,2013-03-01 11:53:00,
2013-03-01 07:02:00,54.0,46.0,29.89,NNE,28,0.0,3.0,74,0.00,,,0.00,,2013-03-01 12:02:00,
2013-03-01 07:11:00,54.0,46.0,29.89,NNE,28,0.0,3.0,74,0.00,,,0.00,,2013-03-01 12:11:00,
2013-03-01 07:22:00,53.0,42.0,29.89,North,9,0.0,3.0,67,0.00,,,0.00,,2013-03-01 12:22:00,
2013-03-01 07:32:00,53.0,41.0,29.89,NE,36,0.0,2.0,64,0.00,,,0.00,,2013-03-01 12:32:00,
2013-03-01 07:42:00,53.0,41.0,29.89,NE,36,0.0,2.0,64,0.00,,,0.00,,2013-03-01 12:42:00,
2013-03-01 07:52:00,52.0,40.0,29.91,NW,317,2.0,4.0,64,0.00,,,0.00,,2013-03-01 12:52:00,
2013-03-01 08:01:00,52.0,39.0,29.92,NNE,26,5.0,7.0,62,0.00,,,0.00,,2013-03-01 13:01:00,
2013-03-01 08:11:00,52.0,39.0,29.92,NNE,26,5.0,7.0,62,0.00,,,0.00,,2013-03-01 13:11:00,
2013-03-01 08:22:00,55.0,41.0,29.91,NE,53,2.0,5.0,60,0.00,,,0.00,,2013-03-01 13:22:00,
2013-03-01 08:32:00,55.0,40.0,29.92,North,9,3.0,5.0,56,0.00,,,0.00,,2013-03-01 13:32:00,
2013-03-01 08:42:00,55.0,40.0,29.92,North,9,3.0,5.0,56,0.00,,,0.00,,2013-03-01 13:42:00,
2013-03-01 08:52:00,55.0,41.0,29.93,NNE,29,0.0,4.0,58,0.00,,,0.00,,2013-03-01 13:52:00,
2013-03-01 09:01:00,54.0,39.0,29.93,North,355,0.0,3.0,57,0.00,,,0.00,,2013-03-01 14:01:00,
2013-03-01 09:11:00,54.0,39.0,29.93,North,355,0.0,3.0,57,0.00,,,0.00,,2013-03-01 14:11:00,
2013-03-01 09:22:00,57.0,39.0,29.93,North,11,1.0,3.0,51,0.00,,,0.00,,2013-03-01 14:22:00,
2013-03-01 09:32:00,58.0,40.0,29.93,North,5,4.0,5.0,51,0.00,,,0.00,,2013-03-01 14:32:00,
2013-03-01 09:42:00,58.0,40.0,29.93,North,5,4.0,5.0,51,0.00,,,0.00,,2013-03-01 14:42:00,
2013-03-01 09:52:00,59.0,39.0,29.94,North,5,4.0,7.0,47,0.00,,,0.00,,2013-03-01 14:52:00,
2013-03-01 10:02:00,58.0,39.0,29.94,WNW,302,1.0,4.0,50,0.00,,,0.00,,2013-03-01 15:02:00,
2013-03-01 10:11:00,59.0,40.0,29.93,North,5,0.0,0.0,50,0.00,,,0.00,,2013-03-01 15:11:00,
2013-03-01 10:21:00,59.0,40.0,29.93,North,5,0.0,0.0,50,0.00,,,0.00,,2013-03-01 15:21:00,
2013-03-01 10:32:00,61.0,41.0,29.93,North,11,4.0,7.0,47,0.00,,,0.00,,2013-03-01 15:32:00,
2013-03-01 10:42:00,61.0,41.0,29.93,North,11,4.0,7.0,47,0.00,,,0.00,,2013-03-01 15:42:00,
2013-03-01 10:52:00,61.0,42.0,29.94,NNE,25,2.0,5.0,50,0.00,,,0.00,,2013-03-01 15:52:00,
2013-03-01 11:01:00,62.0,43.0,29.94,NNW,334,4.0,8.0,49,0.00,,,0.00,,2013-03-01 16:01:00,
2013-03-01 11:11:00,62.0,43.0,29.94,NNW,334,4.0,8.0,49,0.00,,,0.00,,2013-03-01 16:11:00,
2013-03-01 11:21:00,63.0,44.0,29.94,NNW,340,2.0,8.0,50,0.00,,,0.00,,2013-03-01 16:21:00,
2013-03-01 11:32:00,62.0,41.0,29.94,North,355,0.0,1.0,46,0.00,,,0.00,,2013-03-01 16:32:00,
2013-03-01 11:42:00,62.0,41.0,29.94,North,355,0.0,1.0,46,0.00,,,0.00,,2013-03-01 16:42:00,
2013-03-01 11:52:00,61.0,42.0,29.94,NNW,328,3.0,9.0,49,0.00,,,0.00,,2013-03-01 16:52:00,
2013-03-01 12:01:00,61.0,41.0,29.93,NE,34,4.0,6.0,48,0.00,,,0.00,,2013-03-01 17:01:00,
2013-03-01 12:11:00,61.0,41.0,29.93,NE,34,4.0,6.0,48,0.00,,,0.00,,2013-03-01 17:11:00,
2013-03-01 12:21:00,62.0,43.0,29.93,NW,319,1.0,3.0,49,0.00,,,0.00,,2013-03-01 17:21:00,
2013-03-01 12:32:00,62.0,43.0,29.92,NNE,13,0.0,1.0,49,0.00,,,0.00,,2013-03-01 17:32:00,
2013-03-01 12:42:00,62.0,43.0,29.92,NNE,13,0.0,1.0,49,0.00,,,0.00,,2013-03-01 17:42:00,
2013-03-01 12:52:00,62.0,43.0,29.91,NE,36,4.0,6.0,50,0.00,,,0.00,,2013-03-01 17:52:00,
2013-03-01 13:01:00,62.0,45.0,29.91,NE,41,0.0,0.0,53,0.00,,,0.00,,2013-03-01 18:01:00,
2013-03-01 13:12:00,62.0,45.0,29.91,NE,41,0.0,0.0,53,0.00,,,0.00,,2013-03-01 18:12:00,
2013-03-01 13:22:00,62.0,44.0,29.91,NW,325,4.0,7.0,51,0.00,,,0.00,,2013-03-01 18:22:00,
2013-03-01 13:32:00,62.0,45.0,29.90,NNW,332,5.0,7.0,53,0.00,,,0.00,,2013-03-01 18:32:00,
2013-03-01 13:42:00,62.0,45.0,29.90,NNW,332,5.0,7.0,53,0.00,,,0.00,,2013-03-01 18:42:00,
2013-03-01 13:52:00,62.0,45.0,29.89,NNW,342,4.0,6.0,53,0.00,,,0.00,,2013-03-01 18:52:00,
2013-03-01 14:01:00,62.0,45.0,29.88,NNW,343,2.0,5.0,54,0.00,,,0.00,,2013-03-01 19:01:00,
2013-03-01 14:11:00,62.0,45.0,29.88,NNW,343,2.0,5.0,54,0.00,,,0.00,,2013-03-01 19:11:00,
2013-03-01 14:21:00,62.0,45.0,29.87,NNW,327,0.0,1.0,54,0.00,,,0.00,,2013-03-01 19:21:00,
2013-03-01 14:32:00,62.0,46.0,29.87,WNW,299,3.0,6.0,55,0.00,,,0.00,,2013-03-01 19:32:00,
2013-03-01 14:42:00,62.0,46.0,29.87,WNW,299,3.0,6.0,55,0.00,,,0.00,,2013-03-01 19:42:00,
2013-03-01 14:52:00,63.0,46.0,29.87,WNW,284,5.0,7.0,54,0.00,,,0.00,,2013-03-01 19:52:00,
2013-03-01 15:01:00,63.0,46.0,29.88,WNW,301,9.0,12.0,54,0.00,,,0.00,,2013-03-01 20:01:00,
2013-03-01 15:11:00,63.0,46.0,29.88,WNW,301,9.0,12.0,54,0.00,,,0.00,,2013-03-01 20:11:00,
2013-03-01 15:21:00,62.0,46.0,29.88,West,275,6.0,8.0,56,0.00,,,0.00,,2013-03-01 20:21:00,
2013-03-01 15:32:00,62.0,46.0,29.88,West,281,7.0,12.0,56,0.00,,,0.00,,2013-03-01 20:32:00,
2013-03-01 15:42:00,62.0,46.0,29.88,West,281,7.0,12.0,56,0.00,,,0.00,,2013-03-01 20:42:00,
2013-03-01 15:52:00,62.0,46.0,29.88,WNW,296,8.0,11.0,55,0.00,,,0.00,,2013-03-01 20:52:00,
2013-03-01 16:01:00,62.0,46.0,29.88,West,278,9.0,15.0,56,0.00,,,0.00,,2013-03-01 21:01:00,
2013-03-01 16:11:00,62.0,46.0,29.88,NW,315,5.0,9.0,56,0.00,,,0.00,,2013-03-01 21:11:00,
2013-03-01 16:21:00,62.0,46.0,29.88,NW,315,5.0,9.0,56,0.00,,,0.00,,2013-03-01 21:21:00,
2013-03-01 16:32:00,61.0,46.0,29.88,NW,313,7.0,10.0,57,0.00,,,0.00,,2013-03-01 21:32:00,
2013-03-01 16:42:00,61.0,46.0,29.88,NW,313,7.0,10.0,57,0.00,,,0.00,,2013-03-01 21:42:00,
2013-03-01 16:52:00,60.0,44.0,29.88,West,277,9.0,11.0,56,0.00,,,0.00,,2013-03-01 21:52:00,
2013-03-01 17:01:00,60.0,44.0,29.88,NNW,329,6.0,9.0,55,0.00,,,0.00,,2013-03-01 22:01:00,
2013-03-01 17:11:00,60.0,44.0,29.89,West,280,11.0,16.0,55,0.00,,,0.00,,2013-03-01 22:11:00,
2013-03-01 17:22:00,60.0,44.0,29.89,West,280,11.0,16.0,55,0.00,,,0.00,,2013-03-01 22:22:00,
2013-03-01 17:32:00,59.0,43.0,29.89,West,271,5.0,8.0,55,0.00,,,0.00,,2013-03-01 22:32:00,
2013-03-01 17:42:00,59.0,43.0,29.89,West,271,5.0,8.0,55,0.00,,,0.00,,2013-03-01 22:42:00,
2013-03-01 17:52:00,59.0,43.0,29.89,WNW,298,4.0,9.0,55,0.00,,,0.00,,2013-03-01 22:52:00,
2013-03-01 18:01:00,59.0,44.0,29.89,WNW,293,7.0,10.0,57,0.00,,,0.00,,2013-03-01 23:01:00,
2013-03-01 18:11:00,59.0,44.0,29.89,WNW,293,7.0,10.0,57,0.00,,,0.00,,2013-03-01 23:11:00,
2013-03-01 18:21:00,58.0,42.0,29.89,WNW,288,5.0,8.0,56,0.00,,,0.00,,2013-03-01 23:21:00,
2013-03-01 18:32:00,58.0,42.0,29.90,NNW,336,3.0,7.0,56,0.00,,,0.00,,2013-03-01 23:32:00,
2013-03-01 18:41:00,58.0,42.0,29.90,NNW,336,3.0,7.0,56,0.00,,,0.00,,2013-03-01 23:41:00,
2013-03-01 18:52:00,58.0,43.0,29.90,WNW,292,5.0,8.0,58,0.00,,,0.00,,2013-03-01 23:52:00,
2013-03-01 19:02:00,57.0,43.0,29.91,West,281,5.0,11.0,60,0.00,,,0.00,,2013-03-02 00:02:00,
2013-03-01 19:12:00,57.0,43.0,29.91,West,281,5.0,11.0,60,0.00,,,0.00,,2013-03-02 00:12:00,
2013-03-01 19:22:00,57.0,43.0,29.91,WNW,294,2.0,7.0,60,0.00,,,0.00,,2013-03-02 00:22:00,
2013-03-01 19:32:00,57.0,44.0,29.91,NW,304,2.0,4.0,61,0.00,,,0.00,,2013-03-02 00:32:00,
2013-03-01 19:42:00,57.0,44.0,29.91,NW,304,2.0,4.0,61,0.00,,,0.00,,2013-03-02 00:42:00,
2013-03-01 19:52:00,56.0,43.0,29.93,WNW,297,4.0,7.0,61,0.00,,,0.00,,2013-03-02 00:52:00,
2013-03-01 20:01:00,56.0,42.0,29.92,NW,319,2.0,8.0,60,0.00,,,0.00,,2013-03-02 01:01:00,
2013-03-01 20:11:00,56.0,42.0,29.92,NW,319,2.0,8.0,60,0.00,,,0.00,,2013-03-02 01:11:00,
2013-03-01 20:21:00,56.0,42.0,29.92,WNW,284,1.0,3.0,60,0.00,,,0.00,,2013-03-02 01:21:00,
2013-03-01 20:32:00,56.0,42.0,29.92,NW,312,1.0,2.0,59,0.00,,,0.00,,2013-03-02 01:32:00,
2013-03-01 20:41:00,56.0,42.0,29.92,NW,312,1.0,2.0,59,0.00,,,0.00,,2013-03-02 01:41:00,
2013-03-01 20:52:00,55.0,41.0,29.93,NW,310,3.0,5.0,60,0.00,,,0.00,,2013-03-02 01:52:00,
2013-03-01 21:01:00,55.0,41.0,29.93,NW,323,2.0,4.0,60,0.00,,,0.00,,2013-03-02 02:01:00,
2013-03-01 21:11:00,55.0,41.0,29.93,NW,323,2.0,4.0,60,0.00,,,0.00,,2013-03-02 02:11:00,
2013-03-01 21:22:00,55.0,41.0,29.93,WNW,284,2.0,4.0,60,0.00,,,0.00,,2013-03-02 02:22:00,
2013-03-01 21:32:00,55.0,41.0,29.94,WNW,299,5.0,9.0,59,0.00,,,0.00,,2013-03-02 02:32:00,
2013-03-01 21:42:00,55.0,41.0,29.94,WNW,299,5.0,9.0,59,0.00,,,0.00,,2013-03-02 02:42:00,
2013-03-01 21:52:00,55.0,40.0,29.94,WNW,292,2.0,6.0,56,0.00,,,0.00,,2013-03-02 02:52:00,
2013-03-01 22:02:00,55.0,37.0,29.95,NW,309,3.0,6.0,51,0.00,,,0.00,,2013-03-02 03:02:00,
2013-03-01 22:11:00,55.0,37.0,29.95,NW,309,3.0,6.0,51,0.00,,,0.00,,2013-03-02 03:11:00,
2013-03-01 22:22:00,55.0,36.0,29.95,NW,304,1.0,6.0,49,0.00,,,0.00,,2013-03-02 03:22:00,
2013-03-01 22:32:00,55.0,37.0,29.95,NW,304,2.0,7.0,51,0.00,,,0.00,,2013-03-02 03:32:00,
2013-03-01 22:42:00,55.0,37.0,29.95,NW,304,2.0,7.0,51,0.00,,,0.00,,2013-03-02 03:42:00,
2013-03-01 22:52:00,55.0,37.0,29.95,WNW,302,3.0,7.0,50,0.00,,,0.00,,2013-03-02 03:52:00,
2013-03-01 23:01:00,55.0,38.0,29.94,NW,315,4.0,6.0,52,0.00,,,0.00,,2013-03-02 04:01:00,
2013-03-01 23:11:00,55.0,38.0,29.94,NW,315,4.0,6.0,52,0.00,,,0.00,,2013-03-02 04:11:00,
2013-03-01 23:22:00,55.0,38.0,29.95,NNW,338,6.0,9.0,53,0.00,,,0.00,,2013-03-02 04:22:00,
2013-03-01 23:32:00,55.0,39.0,29.93,WNW,300,0.0,1.0,54,0.00,,,0.00,,2013-03-02 04:32:00,
2013-03-01 23:42:00,55.0,39.0,29.93,WNW,300,0.0,1.0,54,0.00,,,0.00,,2013-03-02 04:42:00,
2013-03-01 23:52:00,55.0,39.0,29.94,NW,325,1.0,4.0,55,0.00,,,0.00,,2013-03-02 04:52:00,